Time,TemperatureF,DewpointF,PressureIn,WindDirection,WindDirectionDegrees,WindSpeedMPH,WindSpeedGustMPH,Humidity,HourlyPrecipIn,Conditions,Clouds,dailyrainin,SoftwareType,DateUTC
2013-03-15 00:08:00,54.0,53.4,29.89,South,180,0.0,-999.0,98,-99.99,,,0.00,Acu-Link.com,2013-03-15 07:08:00,
2013-03-15 00:23:00,54.1,53.5,29.89,NNE,22,0.0,-999.0,98,-99.99,,,0.00,Acu-Link.com,2013-03-15 07:23:00,
2013-03-15 00:38:00,53.8,53.2,29.90,SSW,202,0.0,-999.0,98,-99.99,,,0.00,Acu-Link.com,2013-03-15 07:38:00,
2013-03-15 00:53:00,53.6,53.0,29.89,ENE,67,0.0,-999.0,98,-99.99,,,0.00,Acu-Link.com,2013-03-15 07:53:00,
2013-03-15 01:08:00,53.4,52.8,29.89,SSE,157,0.0,-999.0,98,-99.99,,,0.00,Acu-Link.com,2013-03-15 08:08:00,
2013-03-15 01:24:00,53.2,52.6,29.89,SE,135,0.0,-999.0,98,-99.99,,,0.00,Acu-Link.com,2013-03-15 08:24:00,
2013-03-15 01:39:00,52.5,52.0,29.89,South,180,0.0,-999.0,98,-99.99,,,0.00,Acu-Link.com,2013-03-15 08:39:00,
2013-03-15 01:54:00,52.2,51.7,29.88,South,180,0.0,-999.0,98,-99.99,,,0.00,Acu-Link.com,2013-03-15 08:54:00,
2013-03-15 02:09:00,51.3,50.8,29.88,SSE,157,0.0,-999.0,98,-99.99,,,0.00,Acu-Link.com,2013-03-15 09:09:00,
2013-03-15 02:24:00,51.1,50.6,29.88,SE,135,0.0,-999.0,98,-99.99,,,0.00,Acu-Link.com,2013-03-15 09:24:00,
2013-03-15 02:39:00,53.2,52.6,29.88,West,270,1.7,-999.0,98,-99.99,,,0.00,Acu-Link.com,2013-03-15 09:39:00,
2013-03-15 02:54:00,52.7,52.2,29.88,West,270,0.0,-999.0,98,-99.99,,,0.00,Acu-Link.com,2013-03-15 09:54:00,
2013-03-15 03:09:00,51.8,51.3,29.88,SE,135,0.0,-999.0,98,-99.99,,,0.00,Acu-Link.com,2013-03-15 10:09:00,
2013-03-15 03:25:00,51.1,50.6,29.88,ESE,112,0.0,-999.0,98,-99.99,,,0.00,Acu-Link.com,2013-03-15 10:25:00,
2013-03-15 03:40:00,50.4,49.9,29.88,ESE,112,0.0,-999.0,98,-99.99,,,0.00,Acu-Link.com,2013-03-15 10:40:00,
2013-03-15 03:55:00,50.2,49.7,29.87,East,90,0.0,-999.0,98,-99.99,,,0.00,Acu-Link.com,2013-03-15 10:55:00,
2013-03-15 04:10:00,49.6,49.1,29.87,West,270,0.0,-999.0,98,-99.99,,,0.00,Acu-Link.com,2013-03-15 11:10:00,
2013-03-15 04:25:00,49.6,49.1,29.87,ESE,112,0.0,-999.0,98,-99.99,,,0.00,Acu-Link.com,2013-03-15 11:25:00,
2013-03-15 04:40:00,49.6,49.1,29.86,South,180,0.0,-999.0,98,-99.99,,,0.00,Acu-Link.com,2013-03-15 11:40:00,
2013-03-15 04:56:00,49.3,48.8,29.87,SSW,202,0.0,-999.0,98,-99.99,,,0.00,Acu-Link.com,2013-03-15 11:56:00,
2013-03-15 05:11:00,49.5,49.0,29.85,South,180,0.0,-999.0,98,-99.99,,,0.00,Acu-Link.com,2013-03-15 12:11:00,
2013-03-15 05:41:00,48.7,48.2,29.86,SSW,202,0.0,-999.0,98,-99.99,,,0.00,Acu-Link.com,2013-03-15 12:41:00,
2013-03-15 05:56:00,48.4,47.9,29.87,SW,225,0.0,-999.0,98,-99.99,,,0.00,Acu-Link.com,2013-03-15 12:56:00,
2013-03-15 06:11:00,47.8,47.3,29.87,SW,225,0.0,-999.0,98,-99.99,,,0.00,Acu-Link.com,2013-03-15 13:11:00,
2013-03-15 06:26:00,48.0,47.5,29.86,NE,45,0.0,-999.0,98,-99.99,,,0.00,Acu-Link.com,2013-03-15 13:26:00,
2013-03-15 06:42:00,48.0,47.5,29.87,SE,135,0.0,-999.0,98,-99.99,,,0.00,Acu-Link.com,2013-03-15 13:42:00,
2013-03-15 06:57:00,47.8,47.3,29.87,South,180,0.0,-999.0,98,-99.99,,,0.00,Acu-Link.com,2013-03-15 13:57:00,
2013-03-15 07:12:00,47.3,46.8,29.87,SW,225,0.0,-999.0,98,-99.99,,,0.00,Acu-Link.com,2013-03-15 14:12:00,
2013-03-15 07:27:00,46.6,46.1,29.87,ESE,112,0.0,-999.0,98,-99.99,,,0.00,Acu-Link.com,2013-03-15 14:27:00,
2013-03-15 07:42:00,47.1,46.6,29.88,SW,225,0.0,-999.0,98,-99.99,,,0.00,Acu-Link.com,2013-03-15 14:42:00,
2013-03-15 07:57:00,48.7,48.2,29.90,WSW,247,1.7,-999.0,98,-99.99,,,0.00,Acu-Link.com,2013-03-15 14:57:00,
2013-03-15 08:12:00,50.5,50.0,29.89,West,270,1.1,-999.0,98,-99.99,,,0.00,Acu-Link.com,2013-03-15 15:12:00,
2013-03-15 08:28:00,53.1,52.5,29.89,NE,45,0.0,-999.0,98,-99.99,,,0.00,Acu-Link.com,2013-03-15 15:28:00,
2013-03-15 08:43:00,52.9,52.4,29.89,ESE,112,0.0,-999.0,98,-99.99,,,0.00,Acu-Link.com,2013-03-15 15:43:00,
2013-03-15 08:58:00,55.9,55.3,29.90,NE,45,0.0,-999.0,98,-99.99,,,0.00,Acu-Link.com,2013-03-15 15:58:00,
2013-03-15 09:13:00,61.7,61.1,29.89,West,270,0.0,-999.0,98,-99.99,,,0.00,Acu-Link.com,2013-03-15 16:13:00,
2013-03-15 09:28:00,67.3,66.7,29.89,WNW,292,1.1,-999.0,98,-99.99,,,0.00,Acu-Link.com,2013-03-15 16:28:00,
2013-03-15 09:44:00,72.0,18.5,29.89,NE,45,1.7,-999.0,13,-99.99,,,0.00,Acu-Link.com,2013-03-15 16:44:00,
2013-03-15 09:59:00,75.6,-31.5,29.89,SSW,202,0.0,-999.0,1,-99.99,,,0.00,Acu-Link.com,2013-03-15 16:59:00,
2013-03-15 10:29:00,81.9,-27.7,29.89,NNE,22,1.7,-999.0,1,-99.99,,,0.00,Acu-Link.com,2013-03-15 17:29:00,
2013-03-15 10:44:00,86.0,-25.3,29.88,NE,45,1.7,-999.0,1,-99.99,,,0.00,Acu-Link.com,2013-03-15 17:44:00,
2013-03-15 10:59:00,86.7,-24.9,29.88,SW,225,0.0,-999.0,1,-99.99,,,0.00,Acu-Link.com,2013-03-15 17:59:00,
2013-03-15 11:14:00,89.8,-23.0,29.88,SE,135,0.0,-999.0,1,-99.99,,,0.00,Acu-Link.com,2013-03-15 18:14:00,
2013-03-15 11:29:00,91.4,-22.1,29.87,West,270,2.7,-999.0,1,-99.99,,,0.00,Acu-Link.com,2013-03-15 18:29:00,
2013-03-15 11:44:00,85.3,-25.7,29.87,NW,315,2.7,-999.0,1,-99.99,,,0.00,Acu-Link.com,2013-03-15 18:44:00,
2013-03-15 12:00:00,86.7,-24.9,29.86,SW,225,4.2,-999.0,1,-99.99,,,0.00,Acu-Link.com,2013-03-15 19:00:00,
2013-03-15 12:15:00,82.6,-27.3,29.86,West,270,2.2,-999.0,1,-99.99,,,0.00,Acu-Link.com,2013-03-15 19:15:00,
2013-03-15 12:30:00,82.6,-27.3,29.86,SSE,157,2.2,-999.0,1,-99.99,,,0.00,Acu-Link.com,2013-03-15 19:30:00,
2013-03-15 12:45:00,79.7,59.4,29.86,NE,45,2.7,-999.0,50,-99.99,,,0.00,Acu-Link.com,2013-03-15 19:45:00,
2013-03-15 13:00:00,78.3,-29.9,29.85,SW,225,3.7,-999.0,1,-99.99,,,0.00,Acu-Link.com,2013-03-15 20:00:00,
2013-03-15 13:15:00,78.4,-29.8,29.85,SW,225,3.7,-999.0,1,-99.99,,,0.00,Acu-Link.com,2013-03-15 20:15:00,
2013-03-15 13:30:00,75.4,55.5,29.85,NNW,337,3.2,-999.0,50,-99.99,,,0.00,Acu-Link.com,2013-03-15 20:30:00,
2013-03-15 13:46:00,74.3,36.2,29.85,West,270,4.2,-999.0,25,-99.99,,,0.00,Acu-Link.com,2013-03-15 20:46:00,
2013-03-15 14:01:00,76.1,-31.2,29.85,SSE,157,3.7,-999.0,1,-99.99,,,0.00,Acu-Link.com,2013-03-15 21:01:00,
2013-03-15 14:46:00,73.4,71.9,29.84,SW,225,4.2,-999.0,95,-99.99,,,0.00,Acu-Link.com,2013-03-15 21:46:00,
2013-03-15 15:01:00,73.6,-32.7,29.83,WSW,247,3.7,-999.0,1,-99.99,,,0.00,Acu-Link.com,2013-03-15 22:01:00,
2013-03-15 15:16:00,74.1,60.2,29.83,South,180,4.2,-999.0,62,-99.99,,,0.00,Acu-Link.com,2013-03-15 22:16:00,
2013-03-15 15:31:00,76.8,-30.7,29.82,South,180,5.3,-999.0,1,-99.99,,,0.00,Acu-Link.com,2013-03-15 22:31:00,
2013-03-15 15:46:00,77.7,-30.2,29.82,SW,225,1.7,-999.0,1,-99.99,,,0.00,Acu-Link.com,2013-03-15 22:46:00,
2013-03-15 16:02:00,79.0,-29.4,29.81,SSE,157,0.0,-999.0,1,-99.99,,,0.00,Acu-Link.com,2013-03-15 23:02:00,
2013-03-15 16:32:00,82.6,-27.3,29.81,NW,315,1.7,-999.0,1,-99.99,,,0.00,Acu-Link.com,2013-03-15 23:32:00,
2013-03-15 16:47:00,83.8,-26.6,29.80,ESE,112,2.2,-999.0,1,-99.99,,,0.00,Acu-Link.com,2013-03-15 23:47:00,
2013-03-15 17:02:00,82.2,-27.5,29.80,North,0,1.7,-999.0,1,-99.99,,,0.00,Acu-Link.com,2013-03-16 00:02:00,
2013-03-15 17:17:00,81.0,-28.2,29.80,WSW,247,2.7,-999.0,1,-99.99,,,0.00,Acu-Link.com,2013-03-16 00:17:00,
2013-03-15 17:32:00,76.1,-31.2,29.80,South,180,2.7,-999.0,1,-99.99,,,0.00,Acu-Link.com,2013-03-16 00:32:00,
2013-03-15 17:47:00,71.4,60.3,29.81,SSE,157,1.7,-999.0,68,-99.99,,,0.00,Acu-Link.com,2013-03-16 00:47:00,
2013-03-15 18:02:00,69.8,69.2,29.80,WSW,247,2.7,-999.0,98,-99.99,,,0.00,Acu-Link.com,2013-03-16 01:02:00,
2013-03-15 18:18:00,66.9,66.3,29.81,SW,225,3.2,-999.0,98,-99.99,,,0.00,Acu-Link.com,2013-03-16 01:18:00,
2013-03-15 18:33:00,63.5,62.9,29.81,NW,315,1.7,-999.0,98,-99.99,,,0.00,Acu-Link.com,2013-03-16 01:33:00,
2013-03-15 18:48:00,61.7,61.1,29.81,South,180,0.0,-999.0,98,-99.99,,,0.00,Acu-Link.com,2013-03-16 01:48:00,
2013-03-15 19:03:00,60.4,59.8,29.81,South,180,0.0,-999.0,98,-99.99,,,0.00,Acu-Link.com,2013-03-16 02:03:00,
2013-03-15 19:18:00,59.0,58.4,29.81,West,270,2.2,-999.0,98,-99.99,,,0.00,Acu-Link.com,2013-03-16 02:18:00,
2013-03-15 19:33:00,57.2,56.6,29.82,West,270,3.2,-999.0,98,-99.99,,,0.00,Acu-Link.com,2013-03-16 02:33:00,
2013-03-15 19:49:00,56.5,55.9,29.83,WNW,292,0.0,-999.0,98,-99.99,,,0.00,Acu-Link.com,2013-03-16 02:49:00,
2013-03-15 20:04:00,55.8,55.2,29.83,WNW,292,0.0,-999.0,98,-99.99,,,0.00,Acu-Link.com,2013-03-16 03:04:00,
2013-03-15 20:19:00,55.4,54.8,29.83,NNE,22,1.7,-999.0,98,-99.99,,,0.00,Acu-Link.com,2013-03-16 03:19:00,
2013-03-15 20:34:00,55.2,54.6,29.82,ESE,112,0.0,-999.0,98,-99.99,,,0.00,Acu-Link.com,2013-03-16 03:34:00,
2013-03-15 20:49:00,54.7,54.1,29.82,SSW,202,0.0,-999.0,98,-99.99,,,0.00,Acu-Link.com,2013-03-16 03:49:00,
2013-03-15 21:04:00,54.3,53.7,29.81,NNE,22,0.0,-999.0,98,-99.99,,,0.00,Acu-Link.com,2013-03-16 04:04:00,
2013-03-15 21:19:00,54.1,53.5,29.81,SSE,157,0.0,-999.0,98,-99.99,,,0.00,Acu-Link.com,2013-03-16 04:19:00,
2013-03-15 21:34:00,53.8,53.2,29.81,South,180,0.0,-999.0,98,-99.99,,,0.00,Acu-Link.com,2013-03-16 04:34:00,
2013-03-15 21:49:00,53.6,53.0,29.81,SSE,157,0.0,-999.0,98,-99.99,,,0.00,Acu-Link.com,2013-03-16 04:49:00,
2013-03-15 22:04:00,53.1,52.5,29.81,South,180,0.0,-999.0,98,-99.99,,,0.00,Acu-Link.com,2013-03-16 05:04:00,
2013-03-15 22:20:00,52.7,52.2,29.81,SW,225,0.0,-999.0,98,-99.99,,,0.00,Acu-Link.com,2013-03-16 05:20:00,
2013-03-15 22:35:00,52.2,51.7,29.81,SW,225,0.0,-999.0,98,-99.99,,,0.00,Acu-Link.com,2013-03-16 05:35:00,
2013-03-15 22:50:00,52.0,51.5,29.82,South,180,0.0,-999.0,98,-99.99,,,0.00,Acu-Link.com,2013-03-16 05:50:00,
2013-03-15 23:05:00,52.3,51.8,29.81,SSW,202,0.0,-999.0,98,-99.99,,,0.00,Acu-Link.com,2013-03-16 06:05:00,
2013-03-15 23:20:00,52.0,51.5,29.81,ENE,67,0.0,-999.0,98,-99.99,,,0.00,Acu-Link.com,2013-03-16 06:20:00,
2013-03-15 23:35:00,51.8,51.3,29.81,South,180,1.1,-999.0,98,-99.99,,,0.00,Acu-Link.com,2013-03-16 06:35:00,
2013-03-15 23:50:00,51.6,51.1,29.82,East,90,0.0,-999.0,98,-99.99,,,0.00,Acu-Link.com,2013-03-16 06:50:00,